Portada
METAR-TAF:

METAR-TAF

Aeroports :

Shijiazhuang, Xina

latitud: 38-16-51N, longitud: 114-41-48E, altitud: 233 m

Observació

L'informe es va fer fa 43 minuts, a les 03:00 UTC
Vent 4 kt del Oest, variant entre Oest/Sud-Oest i Nord-Oest
Temperatura 3°C
Humitat 41%
Pressió 1027 hPa
Visibilitat: 7000 m

METAR: ZBSJ 060300Z 28002MPS 240V320 7000 NSC 03/M09 Q1027 NOSIG

Hora: 11:43 (03:43 UTC)

Pronòstic

L'informe es va fer fa 6 hores i 14 minuts, a les 21:29 UTC
Pronòstic vàlid del 06 a les 00 UTC al 06 a les 24 UTC
Vent 6 kt del Nord/Nord-Oest
Visibilitat: 5000 m
boirina

TAF: ZBSJ 052129Z 0600/0624 33003MPS 5000 BR NSC TX07/0607Z TNM07/0621Z

Observacions i pronòstics meteorològics de més de 4000 aeroports (METAR i TAF).

Les estacions disponibles són els punts grocs i vermells al mapa.

Posi el ratolí al punt desitjat per veure el nom de l'estació.

Feu clic per veure les observacions i els pronòstics meteorològics.

Per canviar el mapa: feu clic els botons verds amb una creu de color negre per apropar; al botó verd amb un guió per allunyar la imatge; o en les fletxes verdes per a mapes adjacents.


METAR-TAF: